E60 weather

Eloy Municipal Airport
Eloy, Arizona, United States

Public forecast

Using degrees Fahrenheit for public forecast. Weather courtesy of forecast.io.

Closest aviation weather report (METAR) to Eloy Municipal Airport

Closest report is Coolidge Municipal Airport, 11.2 nm (20.7 km) NE. Retrieved 2019/12/14 20:35 UTC (17 minutes ago):

KP08 142035Z AUTO RMK AO2 PNO PWINO TSNO

Closest aviation forecast (TAF) to Eloy Municipal Airport

Closest forecast is Phoenix-Mesa-Gateway Airport, 30.3 nm (56.0 km) N. Retrieved 2019/12/14 18:42 UTC (2 hours ago):

TAF KIWA 141741Z 1418/1518 14007KT P6SM FEW120 SCT250 FM142000 27006KT P6SM SCT200 FM150300 VRB06KT P6SM FEW060 BKN150 FM151700 25007KT P6SM SCT250